createdAt,value
2022-12-15T00:00:25.961Z,73.07
2022-12-15T00:04:46.364Z,73.01
2022-12-15T00:09:14.067Z,72.86
2022-12-15T00:13:35.542Z,72.22
2022-12-15T00:17:57.023Z,72.51
2022-12-15T00:22:17.756Z,72.58
2022-12-15T00:26:39.607Z,72.21
2022-12-15T00:31:02.451Z,72.57
2022-12-15T00:35:24.545Z,72.44
2022-12-15T00:39:28.280Z,72.39
2022-12-15T00:43:36.862Z,72.12
2022-12-15T00:47:40.375Z,72.45
2022-12-15T00:52:00.971Z,72.28
2022-12-15T00:56:22.182Z,72.38
2022-12-15T01:00:44.505Z,72.13
2022-12-15T01:05:05.387Z,71.92
2022-12-15T01:09:28.149Z,71.73
2022-12-15T01:13:49.890Z,72.92
2022-12-15T01:18:12.392Z,71.87
2022-12-15T01:22:15.851Z,72.24
2022-12-15T01:26:19.112Z,72.39
2022-12-15T01:30:24.574Z,72.21
2022-12-15T01:34:29.505Z,72.18
2022-12-15T01:38:33.037Z,72.21
2022-12-15T01:42:36.109Z,71.84
2022-12-15T01:46:39.659Z,71.83
2022-12-15T01:50:48.312Z,71.95
2022-12-15T01:54:55.980Z,72.12
2022-12-15T01:59:03.380Z,72.04
2022-12-15T02:03:08.414Z,72.18
2022-12-15T02:07:15.447Z,71.99
2022-12-15T02:12:02.672Z,71.96
2022-12-15T02:16:14.360Z,71.81
2022-12-15T02:20:42.425Z,71.84
2022-12-15T02:29:58.553Z,71.76
2022-12-15T02:34:10.282Z,71.55
2022-12-15T02:38:14.161Z,71.87
2022-12-15T02:42:17.670Z,72.29
2022-12-15T02:46:28.143Z,71.66
2022-12-15T02:50:50.660Z,71.84
2022-12-15T02:55:10.107Z,71.95
2022-12-15T02:59:21.335Z,72.05
2022-12-15T03:03:25.992Z,72.06
2022-12-15T03:07:30.756Z,71.71
2022-12-15T03:11:34.903Z,71.83
2022-12-15T03:15:38.417Z,72.04
2022-12-15T03:19:42.046Z,71.79
2022-12-15T03:23:46.873Z,71.61
2022-12-15T03:27:50.444Z,71.74
2022-12-15T03:31:54.043Z,72.11
2022-12-15T03:35:57.930Z,72.05
2022-12-15T03:40:02.915Z,71.93
2022-12-15T03:44:06.376Z,72.43
2022-12-15T03:48:09.942Z,71.84
2022-12-15T03:52:13.758Z,72.39
2022-12-15T03:56:19.476Z,72.56
2022-12-15T04:00:24.915Z,71.89
2022-12-15T04:04:28.413Z,72.45
2022-12-15T04:08:32.005Z,72.42
2022-12-15T04:12:39.748Z,72.67
2022-12-15T04:16:43.289Z,72.58
2022-12-15T04:20:46.319Z,72.56
2022-12-15T04:25:11.472Z,72.73
2022-12-15T04:29:33.776Z,72.50
2022-12-15T04:33:55.724Z,72.60
2022-12-15T04:38:16.964Z,72.47
2022-12-15T04:42:37.791Z,72.14
2022-12-15T04:47:02.573Z,72.54
2022-12-15T04:51:24.183Z,72.13
2022-12-15T04:55:45.349Z,72.77
2022-12-15T05:00:06.373Z,72.70
2022-12-15T05:04:28.415Z,72.73
2022-12-15T05:08:50.132Z,72.17
2022-12-15T05:13:10.873Z,71.83
2022-12-15T05:17:33.562Z,72.50
2022-12-15T05:21:56.574Z,72.09
2022-12-15T05:26:18.355Z,72.08
2022-12-15T05:30:39.474Z,72.38
2022-12-15T05:34:43.242Z,72.52
2022-12-15T05:38:50.431Z,72.28
2022-12-15T05:42:54.088Z,72.30
2022-12-15T05:46:58.171Z,72.79
2022-12-15T05:51:05.445Z,72.50
2022-12-15T05:55:10.938Z,72.68
2022-12-15T05:59:15.587Z,72.32
2022-12-15T06:03:19.039Z,72.66
2022-12-15T06:07:22.085Z,72.48
2022-12-15T06:11:27.694Z,72.25
2022-12-15T06:15:31.140Z,72.65
2022-12-15T06:19:34.119Z,72.18
2022-12-15T06:23:38.384Z,72.66
2022-12-15T06:27:43.330Z,72.52
2022-12-15T06:31:46.930Z,72.44
2022-12-15T06:35:53.969Z,72.32
2022-12-15T06:40:01.101Z,72.59
2022-12-15T06:44:06.528Z,72.53
2022-12-15T06:48:10.269Z,72.41
2022-12-15T06:52:14.105Z,72.21
2022-12-15T06:56:23.352Z,71.81
2022-12-15T07:00:32.736Z,72.43
2022-12-15T07:04:36.300Z,71.97
2022-12-15T07:08:41.878Z,71.88
2022-12-15T07:12:45.807Z,72.05
2022-12-15T07:16:50.312Z,72.18
2022-12-15T07:20:53.928Z,72.17
2022-12-15T07:24:57.616Z,72.26
2022-12-15T07:29:01.301Z,72.47
2022-12-15T07:33:06.613Z,72.49
2022-12-15T07:37:10.304Z,72.85
2022-12-15T07:41:14.020Z,72.42
2022-12-15T07:45:17.605Z,72.37
2022-12-15T07:49:22.950Z,72.45
2022-12-15T07:53:28.532Z,72.18
2022-12-15T07:57:32.987Z,72.25
2022-12-15T08:01:37.145Z,71.79
2022-12-15T08:05:42.030Z,70.95
2022-12-15T08:09:47.847Z,71.46
2022-12-15T08:14:02.570Z,70.85
2022-12-15T08:18:09.250Z,70.74
2022-12-15T08:22:15.731Z,71.14
2022-12-15T08:26:23.806Z,70.56
2022-12-15T08:30:30.431Z,70.70
2022-12-15T08:34:35.977Z,70.73
2022-12-15T08:38:42.778Z,70.83
2022-12-15T08:42:46.535Z,70.12
2022-12-15T08:46:49.597Z,69.82
2022-12-15T08:50:52.989Z,69.92
2022-12-15T08:54:58.033Z,68.92
2022-12-15T08:59:03.288Z,68.98
2022-12-15T09:03:06.801Z,68.84
2022-12-15T09:07:10.366Z,68.27
2022-12-15T09:11:15.803Z,67.75
2022-12-15T09:15:19.432Z,67.67
2022-12-15T09:19:22.926Z,67.12
2022-12-15T09:23:26.245Z,66.87
2022-12-15T09:27:31.785Z,65.94
2022-12-15T09:31:39.537Z,66.24
2022-12-15T09:35:42.860Z,65.52
2022-12-15T09:39:46.517Z,64.95
2022-12-15T09:43:56.721Z,64.84
2022-12-15T09:48:05.118Z,65.06
2022-12-15T09:52:14.171Z,65.19
2022-12-15T09:56:24.739Z,65.44
2022-12-15T10:00:34.366Z,65.37
2022-12-15T10:04:51.309Z,65.59
2022-12-15T10:08:57.417Z,65.63
2022-12-15T10:13:09.079Z,65.00
2022-12-15T10:17:23.244Z,65.58
2022-12-15T10:21:30.660Z,65.24
2022-12-15T11:24:09.476Z,67.60
2022-12-15T11:28:18.341Z,67.89
2022-12-15T11:32:25.088Z,67.64
2022-12-15T11:36:57.848Z,67.68
2022-12-15T11:41:10.587Z,67.68
2022-12-15T11:45:20.895Z,69.12
2022-12-15T11:49:47.876Z,67.68
2022-12-15T11:54:08.167Z,67.75
2022-12-15T11:58:48.601Z,68.88
2022-12-15T12:03:03.439Z,67.32
2022-12-15T12:07:19.565Z,68.01
2022-12-15T12:11:28.145Z,67.80
2022-12-15T12:15:38.791Z,67.40
2022-12-15T12:19:50.776Z,67.55
2022-12-15T12:24:01.465Z,68.08
2022-12-15T12:28:11.757Z,67.19
2022-12-15T12:32:20.778Z,67.53
2022-12-15T12:36:25.485Z,67.28
2022-12-15T12:40:37.242Z,67.12
2022-12-15T12:44:40.491Z,67.35
2022-12-15T12:48:52.256Z,67.67
2022-12-15T12:52:59.568Z,67.57
2022-12-15T12:57:03.618Z,67.96
2022-12-15T13:01:20.322Z,68.57
2022-12-15T13:05:30.047Z,68.25
2022-12-15T13:09:42.814Z,68.31
2022-12-15T13:13:51.234Z,69.14
2022-12-15T13:17:59.740Z,68.71
2022-12-15T13:22:03.007Z,69.34
2022-12-15T13:26:21.339Z,69.45
2022-12-15T13:30:24.851Z,69.66
2022-12-15T13:34:29.642Z,69.51
2022-12-15T13:38:54.331Z,69.73
2022-12-15T13:43:01.349Z,69.00
2022-12-15T13:47:11.004Z,68.77
2022-12-15T13:51:27.031Z,69.62
2022-12-15T13:55:37.514Z,69.62
2022-12-15T13:59:49.452Z,69.17
2022-12-15T14:04:07.401Z,69.15
2022-12-15T14:08:16.282Z,68.68
2022-12-15T14:12:19.602Z,68.73
2022-12-15T14:16:26.134Z,68.57
2022-12-15T14:20:32.038Z,68.56
2022-12-15T14:24:40.262Z,68.78
2022-12-15T14:28:45.816Z,69.39
2022-12-15T14:32:54.675Z,69.18
2022-12-15T14:36:59.930Z,68.94
2022-12-15T14:41:06.208Z,68.68
2022-12-15T14:45:20.279Z,69.10
2022-12-15T14:49:28.422Z,69.54
2022-12-15T14:53:34.914Z,69.71
2022-12-15T14:57:46.671Z,69.15
2022-12-15T15:01:58.516Z,69.71
2022-12-15T15:06:08.608Z,69.97
2022-12-15T15:10:24.629Z,69.97
2022-12-15T15:14:32.300Z,69.92
2022-12-15T15:18:35.610Z,70.50
2022-12-15T15:22:42.789Z,70.82
2022-12-15T15:26:45.929Z,70.21
2022-12-15T15:30:51.058Z,70.59
2022-12-15T15:34:59.381Z,71.38
2022-12-15T15:39:13.214Z,71.00
2022-12-15T15:43:17.798Z,71.07
2022-12-15T15:47:26.070Z,70.88
2022-12-15T15:51:31.403Z,70.99
2022-12-15T15:55:39.872Z,71.10
2022-12-15T15:59:44.284Z,71.29
2022-12-15T16:03:47.791Z,70.88
2022-12-15T16:07:51.810Z,71.02
2022-12-15T16:11:56.583Z,71.62
2022-12-15T16:15:59.991Z,71.40
2022-12-15T16:20:03.023Z,71.40
2022-12-15T16:24:10.116Z,71.48
2022-12-15T16:28:17.271Z,71.64
2022-12-15T16:32:20.505Z,71.52
2022-12-15T16:36:23.827Z,71.74
2022-12-15T16:40:31.271Z,71.63
2022-12-15T16:44:36.121Z,71.53
2022-12-15T16:48:39.397Z,71.63
2022-12-15T16:52:44.424Z,72.11
2022-12-15T16:56:47.706Z,72.11
2022-12-15T17:00:53.871Z,72.10
2022-12-15T17:04:57.263Z,72.21
2022-12-15T17:09:00.528Z,72.47
2022-12-15T17:13:08.154Z,72.44
2022-12-15T17:17:15.874Z,72.33
2022-12-15T17:21:22.107Z,72.49
2022-12-15T17:26:00.858Z,72.57
2022-12-15T17:29:51.036Z,72.42
2022-12-15T17:33:55.477Z,72.90
2022-12-15T17:37:58.786Z,72.79
2022-12-15T17:42:03.166Z,72.60
2022-12-15T17:46:07.017Z,72.34
2022-12-15T17:50:14.941Z,72.98
2022-12-15T17:54:20.080Z,72.91
2022-12-15T17:58:26.636Z,73.07
2022-12-15T18:02:30.084Z,72.41
2022-12-15T18:06:34.742Z,72.53
2022-12-15T18:10:40.994Z,72.19
2022-12-15T18:14:44.642Z,72.40
2022-12-15T18:18:47.966Z,72.24
2022-12-15T18:22:54.186Z,72.33
2022-12-15T18:26:57.247Z,72.55
2022-12-15T18:31:04.430Z,72.48
2022-12-15T18:35:16.197Z,72.56
2022-12-15T18:39:24.059Z,73.01
2022-12-15T18:43:30.649Z,72.38
2022-12-15T18:47:34.491Z,72.53
2022-12-15T18:51:37.886Z,72.38
2022-12-15T18:55:42.928Z,72.32
2022-12-15T18:59:46.225Z,72.44
2022-12-15T19:03:49.636Z,72.42
2022-12-15T19:07:53.066Z,72.62
2022-12-15T19:12:14.584Z,72.24
2022-12-15T19:16:20.265Z,72.21
2022-12-15T19:20:40.615Z,72.18
2022-12-15T19:24:56.240Z,71.93
2022-12-15T19:29:01.625Z,71.96
2022-12-15T19:33:05.868Z,72.51
2022-12-15T19:37:15.710Z,72.05
2022-12-15T19:41:19.802Z,71.66
2022-12-15T19:45:27.861Z,71.98
2022-12-15T19:49:32.109Z,72.45
2022-12-15T19:53:36.915Z,72.42
2022-12-15T19:57:42.377Z,72.03
2022-12-15T20:01:47.866Z,71.84
2022-12-15T20:10:29.367Z,72.35
2022-12-15T20:14:35.149Z,72.37
2022-12-15T20:18:40.997Z,72.38
2022-12-15T20:22:45.535Z,72.12
2022-12-15T20:26:56.564Z,72.57
2022-12-15T20:31:00.435Z,72.42
2022-12-15T20:35:05.690Z,72.16
2022-12-15T20:39:20.794Z,71.70
2022-12-15T20:43:31.397Z,72.25
2022-12-15T20:47:36.721Z,72.62
2022-12-15T20:51:41.880Z,72.26
2022-12-15T20:55:45.428Z,72.63
2022-12-15T20:59:49.601Z,72.25
2022-12-15T21:03:55.525Z,72.53
2022-12-15T21:08:00.182Z,72.32
2022-12-15T21:12:09.033Z,72.36
2022-12-15T21:16:17.130Z,72.55
2022-12-15T21:20:21.666Z,72.77
2022-12-15T21:24:29.510Z,72.55
2022-12-15T21:28:33.607Z,72.18
2022-12-15T21:32:37.317Z,72.70
2022-12-15T21:36:43.425Z,72.43
2022-12-15T21:40:48.188Z,72.35
2022-12-15T21:44:51.698Z,72.01
2022-12-15T21:49:12.412Z,72.39
2022-12-15T21:53:17.924Z,72.71
2022-12-15T21:57:22.702Z,72.35
2022-12-15T22:01:30.666Z,72.09
2022-12-15T22:05:34.222Z,72.30
2022-12-15T22:09:37.485Z,72.10
2022-12-15T22:13:42.338Z,72.40
2022-12-15T22:17:46.147Z,72.17
2022-12-15T22:21:50.261Z,71.86
2022-12-15T22:25:57.064Z,71.89
2022-12-15T22:30:01.917Z,72.32
2022-12-15T22:34:13.971Z,71.53
2022-12-15T22:38:18.721Z,72.12
2022-12-15T22:42:22.039Z,72.24
2022-12-15T22:46:26.769Z,72.13
2022-12-15T22:50:30.365Z,71.88
2022-12-15T22:54:33.734Z,72.30
2022-12-15T22:58:43.389Z,71.74
2022-12-15T23:02:48.731Z,71.95
2022-12-15T23:06:52.308Z,72.32
2022-12-15T23:11:13.190Z,72.50
2022-12-15T23:15:34.286Z,71.85
2022-12-15T23:19:39.189Z,71.67
2022-12-15T23:23:42.714Z,72.41
2022-12-15T23:27:46.071Z,72.29
2022-12-15T23:31:50.046Z,72.25
2022-12-15T23:35:56.347Z,72.51
2022-12-15T23:39:59.537Z,72.63
2022-12-15T23:44:03.211Z,72.46
2022-12-15T23:48:07.642Z,72.34
2022-12-15T23:52:12.550Z,72.38
2022-12-15T23:56:17.864Z,72.42
